Time,TemperatureF,DewpointF,PressureIn,WindDirection,WindDirectionDegrees,WindSpeedMPH,WindSpeedGustMPH,Humidity,HourlyPrecipIn,Conditions,Clouds,dailyrainin,SoftwareType,DateUTC
2013-04-17 00:02:00,18.0,17.0,-100.00,SE,141,25.0,30.0,97,0.01,,,-99.99,,2013-04-17 06:02:00,
2013-04-17 00:12:00,18.0,17.0,-100.00,SE,143,26.0,32.0,97,0.03,,,-99.99,,2013-04-17 06:12:00,
2013-04-17 00:22:00,18.0,17.0,-100.00,SE,141,24.0,29.0,97,0.01,,,-99.99,,2013-04-17 06:22:00,
2013-04-17 00:32:00,18.0,17.0,-100.00,SE,141,25.0,30.0,96,0.01,,,-99.99,,2013-04-17 06:32:00,
2013-04-17 00:42:00,18.0,17.0,-100.00,SE,143,24.0,30.0,95,0.00,,,-99.99,,2013-04-17 06:42:00,
2013-04-17 00:52:00,18.0,17.0,-100.00,SE,143,24.0,30.0,96,0.04,,,-99.99,,2013-04-17 06:52:00,
2013-04-17 01:02:00,18.0,17.0,-100.00,SE,145,25.0,29.0,96,0.01,,,-99.99,,2013-04-17 07:02:00,
2013-04-17 01:12:00,18.0,17.0,-100.00,SE,143,24.0,29.0,96,0.01,,,-99.99,,2013-04-17 07:12:00,
2013-04-17 01:22:00,18.0,17.0,-100.00,SE,143,24.0,32.0,96,0.01,,,-99.99,,2013-04-17 07:22:00,
2013-04-17 01:32:00,18.0,17.0,-100.00,SE,140,21.0,27.0,96,0.03,,,-99.99,,2013-04-17 07:32:00,
2013-04-17 01:42:00,18.0,17.0,-100.00,SE,138,20.0,26.0,97,0.01,,,-99.99,,2013-04-17 07:42:00,
2013-04-17 01:52:00,18.0,17.0,-100.00,SE,136,17.0,22.0,97,0.01,,,-99.99,,2013-04-17 07:52:00,
2013-04-17 02:02:00,18.0,17.0,-100.00,SE,134,17.0,22.0,97,0.01,,,-99.99,,2013-04-17 08:02:00,
2013-04-17 02:12:00,18.0,17.0,-100.00,SE,136,18.0,23.0,98,0.00,,,-99.99,,2013-04-17 08:12:00,
2013-04-17 02:22:00,18.0,17.0,-100.00,SE,137,17.0,24.0,97,0.00,,,-99.99,,2013-04-17 08:22:00,
2013-04-17 02:32:00,18.0,17.0,-100.00,SE,134,17.0,21.0,98,0.03,,,-99.99,,2013-04-17 08:32:00,
2013-04-17 02:42:00,18.0,17.0,-100.00,SE,136,18.0,24.0,97,0.00,,,-99.99,,2013-04-17 08:42:00,
2013-04-17 02:52:00,18.0,17.0,-100.00,SE,134,15.0,22.0,97,0.01,,,-99.99,,2013-04-17 08:52:00,
2013-04-17 03:02:00,18.0,17.0,-100.00,SE,134,16.0,24.0,97,0.01,,,-99.99,,2013-04-17 09:02:00,
2013-04-17 03:12:00,18.0,17.0,-100.00,SE,134,15.0,22.0,98,0.01,,,-99.99,,2013-04-17 09:12:00,
2013-04-17 03:22:00,18.0,17.0,-100.00,SE,128,12.0,20.0,98,0.00,,,-99.99,,2013-04-17 09:22:00,
2013-04-17 03:33:00,18.0,17.0,-100.00,SE,127,9.0,15.0,98,0.00,,,-99.99,,2013-04-17 09:33:00,
2013-04-17 03:42:00,14.0,13.0,-100.00,ESE,114,13.0,22.0,94,0.01,,,-99.99,,2013-04-17 09:42:00,
2013-04-17 03:52:00,13.0,12.0,-100.00,ESE,102,21.0,26.0,97,0.01,,,-99.99,,2013-04-17 09:52:00,
2013-04-17 04:02:00,13.0,12.0,-100.00,ESE,103,22.0,27.0,97,0.03,,,-99.99,,2013-04-17 10:02:00,
2013-04-17 04:12:00,12.0,12.0,-100.00,ESE,103,21.0,27.0,97,0.03,,,-99.99,,2013-04-17 10:12:00,
2013-04-17 04:23:00,13.0,12.0,-100.00,ESE,110,20.0,24.0,97,0.00,,,-99.99,,2013-04-17 10:23:00,
2013-04-17 04:32:00,12.0,12.0,-100.00,ESE,113,20.0,26.0,97,0.00,,,-99.99,,2013-04-17 10:32:00,
2013-04-17 04:42:00,12.0,11.0,-100.00,ESE,112,19.0,24.0,96,0.01,,,-99.99,,2013-04-17 10:42:00,
2013-04-17 04:52:00,12.0,11.0,-100.00,ESE,116,16.0,24.0,96,0.00,,,-99.99,,2013-04-17 10:52:00,
2013-04-17 05:02:00,12.0,11.0,-100.00,ESE,117,16.0,22.0,96,0.01,,,-99.99,,2013-04-17 11:02:00,
2013-04-17 05:22:00,12.0,11.0,-100.00,ESE,119,13.0,19.0,96,0.01,,,-99.99,,2013-04-17 11:22:00,
2013-04-17 05:32:00,12.0,11.0,-100.00,ESE,120,13.0,20.0,96,0.01,,,-99.99,,2013-04-17 11:32:00,
2013-04-17 05:42:00,12.0,11.0,-100.00,ESE,116,16.0,23.0,96,0.03,,,-99.99,,2013-04-17 11:42:00,
2013-04-17 05:52:00,12.0,11.0,-100.00,ESE,110,16.0,20.0,96,0.04,,,-99.99,,2013-04-17 11:52:00,
2013-04-17 06:02:00,11.0,10.0,-100.00,ESE,106,17.0,22.0,96,0.03,,,-99.99,,2013-04-17 12:02:00,
2013-04-17 06:12:00,11.0,11.0,-100.00,ESE,109,19.0,24.0,96,0.01,,,-99.99,,2013-04-17 12:12:00,
2013-04-17 06:22:00,11.0,10.0,-100.00,ESE,117,17.0,22.0,96,0.01,,,-99.99,,2013-04-17 12:22:00,
2013-04-17 06:32:00,11.0,10.0,-100.00,ESE,114,18.0,22.0,96,0.03,,,-99.99,,2013-04-17 12:32:00,
2013-04-17 06:42:00,11.0,10.0,-100.00,ESE,114,17.0,22.0,96,0.04,,,-99.99,,2013-04-17 12:42:00,
2013-04-17 06:52:00,11.0,10.0,-100.00,ESE,113,16.0,21.0,96,0.03,,,-99.99,,2013-04-17 12:52:00,
2013-04-17 07:02:00,11.0,10.0,-100.00,ESE,117,16.0,20.0,96,0.04,,,-99.99,,2013-04-17 13:02:00,
2013-04-17 07:12:00,11.0,10.0,-100.00,ESE,116,18.0,24.0,96,0.07,,,-99.99,,2013-04-17 13:12:00,
2013-04-17 07:22:00,11.0,10.0,-100.00,ESE,112,20.0,24.0,96,0.11,,,-99.99,,2013-04-17 13:22:00,
2013-04-17 07:32:00,11.0,10.0,-100.00,ESE,117,18.0,26.0,96,0.03,,,-99.99,,2013-04-17 13:32:00,
2013-04-17 07:52:00,11.0,10.0,-100.00,ESE,113,16.0,21.0,96,0.04,,,-99.99,,2013-04-17 13:52:00,
2013-04-17 08:02:00,11.0,10.0,-100.00,ESE,120,14.0,20.0,96,0.04,,,-99.99,,2013-04-17 14:02:00,
2013-04-17 08:12:00,11.0,10.0,-100.00,ESE,120,13.0,18.0,96,0.06,,,-99.99,,2013-04-17 14:12:00,
2013-04-17 08:22:00,11.0,10.0,-100.00,ESE,120,13.0,17.0,96,0.03,,,-99.99,,2013-04-17 14:22:00,
2013-04-17 08:32:00,12.0,11.0,-100.00,ESE,121,12.0,18.0,96,0.03,,,-99.99,,2013-04-17 14:32:00,
2013-04-17 08:42:00,12.0,11.0,-100.00,ESE,119,14.0,21.0,96,0.01,,,-99.99,,2013-04-17 14:42:00,
2013-04-17 08:52:00,12.0,11.0,-100.00,ESE,114,17.0,23.0,96,0.01,,,-99.99,,2013-04-17 14:52:00,
2013-04-17 09:02:00,12.0,11.0,-100.00,ESE,114,16.0,21.0,95,0.01,,,-99.99,,2013-04-17 15:02:00,
2013-04-17 09:12:00,12.0,11.0,-100.00,ESE,117,16.0,20.0,96,0.01,,,-99.99,,2013-04-17 15:12:00,
2013-04-17 09:22:00,12.0,11.0,-100.00,ESE,112,17.0,22.0,96,0.04,,,-99.99,,2013-04-17 15:22:00,
2013-04-17 09:33:00,12.0,11.0,-100.00,ESE,112,16.0,21.0,96,0.06,,,-99.99,,2013-04-17 15:33:00,
2013-04-17 09:42:00,12.0,11.0,-100.00,ESE,114,14.0,19.0,96,0.03,,,-99.99,,2013-04-17 15:42:00,
2013-04-17 09:52:00,12.0,11.0,-100.00,ESE,116,13.0,17.0,96,0.04,,,-99.99,,2013-04-17 15:52:00,
2013-04-17 10:03:00,12.0,11.0,-100.00,ESE,116,14.0,19.0,96,0.13,,,-99.99,,2013-04-17 16:03:00,
2013-04-17 10:22:00,12.0,11.0,-100.00,ESE,116,12.0,17.0,96,0.06,,,-99.99,,2013-04-17 16:22:00,
2013-04-17 10:32:00,12.0,11.0,-100.00,ESE,110,13.0,19.0,96,0.04,,,-99.99,,2013-04-17 16:32:00,
2013-04-17 10:42:00,12.0,11.0,-100.00,ESE,107,15.0,21.0,95,0.03,,,-99.99,,2013-04-17 16:42:00,
2013-04-17 10:52:00,12.0,11.0,-100.00,ESE,109,17.0,21.0,95,0.13,,,-99.99,,2013-04-17 16:52:00,
2013-04-17 11:02:00,12.0,11.0,-100.00,ESE,104,17.0,22.0,95,0.16,,,-99.99,,2013-04-17 17:02:00,
2013-04-17 11:12:00,12.0,11.0,-100.00,ESE,103,17.0,20.0,96,0.08,,,-99.99,,2013-04-17 17:12:00,
2013-04-17 11:22:00,12.0,11.0,-100.00,ESE,104,17.0,21.0,95,0.04,,,-99.99,,2013-04-17 17:22:00,
2013-04-17 11:33:00,12.0,11.0,-100.00,ESE,107,15.0,19.0,95,0.08,,,-99.99,,2013-04-17 17:33:00,
2013-04-17 11:42:00,12.0,11.0,-100.00,ESE,107,16.0,20.0,96,0.18,,,-99.99,,2013-04-17 17:42:00,
2013-04-17 11:52:00,12.0,11.0,-100.00,East,95,17.0,22.0,96,0.17,,,-99.99,,2013-04-17 17:52:00,
2013-04-17 12:02:00,13.0,12.0,-100.00,East,93,17.0,21.0,96,0.17,,,-99.99,,2013-04-17 18:02:00,
2013-04-17 12:12:00,12.0,11.0,-100.00,East,89,17.0,22.0,95,0.14,,,-99.99,,2013-04-17 18:12:00,
2013-04-17 12:22:00,12.0,11.0,-100.00,East,86,19.0,23.0,95,0.20,,,-99.99,,2013-04-17 18:22:00,
2013-04-17 12:32:00,12.0,11.0,-100.00,East,89,20.0,25.0,96,0.10,,,-99.99,,2013-04-17 18:32:00,
2013-04-17 12:42:00,12.0,11.0,-100.00,East,88,19.0,25.0,96,0.07,,,-99.99,,2013-04-17 18:42:00,
2013-04-17 12:52:00,13.0,12.0,-100.00,East,85,14.0,19.0,95,0.18,,,-99.99,,2013-04-17 18:52:00,
2013-04-17 13:02:00,13.0,12.0,-100.00,East,82,14.0,18.0,96,0.17,,,-99.99,,2013-04-17 19:02:00,
2013-04-17 13:12:00,13.0,11.0,-100.00,East,85,14.0,18.0,95,0.27,,,-99.99,,2013-04-17 19:12:00,
2013-04-17 13:32:00,13.0,12.0,-100.00,East,86,15.0,18.0,95,0.11,,,-99.99,,2013-04-17 19:32:00,
2013-04-17 13:42:00,13.0,12.0,-100.00,East,83,14.0,19.0,95,0.04,,,-99.99,,2013-04-17 19:42:00,
2013-04-17 13:52:00,13.0,12.0,-100.00,East,85,14.0,17.0,95,0.01,,,-99.99,,2013-04-17 19:52:00,
2013-04-17 14:02:00,13.0,12.0,-100.00,East,82,12.0,17.0,95,0.01,,,-99.99,,2013-04-17 20:02:00,
2013-04-17 14:22:00,13.0,12.0,-100.00,East,82,12.0,19.0,95,0.17,,,-99.99,,2013-04-17 20:22:00,
2013-04-17 14:32:00,13.0,12.0,-100.00,East,79,14.0,18.0,95,0.01,,,-99.99,,2013-04-17 20:32:00,
2013-04-17 14:42:00,13.0,12.0,-100.00,East,86,15.0,17.0,95,0.00,,,-99.99,,2013-04-17 20:42:00,
2013-04-17 14:52:00,13.0,12.0,-100.00,East,82,15.0,19.0,95,0.00,,,-99.99,,2013-04-17 20:52:00,
2013-04-17 15:02:00,13.0,12.0,-100.00,East,89,16.0,20.0,95,0.00,,,-99.99,,2013-04-17 21:02:00,
2013-04-17 15:12:00,13.0,12.0,-100.00,East,86,15.0,19.0,95,0.00,,,-99.99,,2013-04-17 21:12:00,
2013-04-17 15:22:00,13.0,12.0,-100.00,East,96,12.0,16.0,95,0.00,,,-99.99,,2013-04-17 21:22:00,
2013-04-17 15:33:00,13.0,12.0,-100.00,East,100,12.0,15.0,95,0.01,,,-99.99,,2013-04-17 21:33:00,
2013-04-17 15:42:00,13.0,12.0,-100.00,East,96,12.0,15.0,95,0.00,,,-99.99,,2013-04-17 21:42:00,
2013-04-17 15:53:00,13.0,12.0,-100.00,East,89,13.0,16.0,95,0.04,,,-99.99,,2013-04-17 21:53:00,
2013-04-17 16:02:00,13.0,12.0,-100.00,East,89,11.0,13.0,96,0.24,,,-99.99,,2013-04-17 22:02:00,
2013-04-17 16:12:00,14.0,13.0,-100.00,East,79,9.0,13.0,95,0.00,,,-99.99,,2013-04-17 22:12:00,
2013-04-17 16:22:00,13.0,12.0,-100.00,ENE,75,10.0,12.0,95,0.00,,,-99.99,,2013-04-17 22:22:00,
2013-04-17 16:33:00,13.0,12.0,-100.00,East,80,8.0,11.0,95,0.10,,,-99.99,,2013-04-17 22:33:00,
2013-04-17 16:42:00,13.0,12.0,-100.00,ENE,58,8.0,13.0,96,0.04,,,-99.99,,2013-04-17 22:42:00,
2013-04-17 16:52:00,13.0,12.0,-100.00,NNE,32,11.0,14.0,95,0.01,,,-99.99,,2013-04-17 22:52:00,
2013-04-17 17:02:00,13.0,12.0,-100.00,NE,41,11.0,15.0,95,0.00,,,-99.99,,2013-04-17 23:02:00,
2013-04-17 17:12:00,13.0,12.0,-100.00,NE,51,7.0,11.0,96,0.01,,,-99.99,,2013-04-17 23:12:00,
2013-04-17 17:22:00,14.0,13.0,-100.00,NE,34,6.0,9.0,96,0.03,,,-99.99,,2013-04-17 23:22:00,
2013-04-17 17:32:00,14.0,13.0,-100.00,NNE,32,7.0,9.0,96,0.01,,,-99.99,,2013-04-17 23:32:00,
2013-04-17 17:42:00,13.0,12.0,-100.00,NNE,32,6.0,9.0,96,0.00,,,-99.99,,2013-04-17 23:42:00,
2013-04-17 17:52:00,13.0,12.0,-100.00,NNE,17,7.0,10.0,96,0.06,,,-99.99,,2013-04-17 23:52:00,
2013-04-17 18:02:00,13.0,12.0,-100.00,North,10,7.0,12.0,95,0.03,,,-99.99,,2013-04-18 00:02:00,
2013-04-17 18:12:00,13.0,11.0,-100.00,North,354,9.0,12.0,95,0.04,,,-99.99,,2013-04-18 00:12:00,
2013-04-17 18:22:00,12.0,11.0,-100.00,NNW,347,11.0,15.0,95,0.01,,,-99.99,,2013-04-18 00:22:00,
2013-04-17 18:32:00,12.0,11.0,-100.00,NNW,346,9.0,14.0,96,0.00,,,-99.99,,2013-04-18 00:32:00,
2013-04-17 18:42:00,12.0,11.0,-100.00,NNW,347,7.0,12.0,95,0.01,,,-99.99,,2013-04-18 00:42:00,
2013-04-17 18:52:00,11.0,10.0,-100.00,NNW,347,11.0,16.0,95,0.00,,,-99.99,,2013-04-18 00:52:00,
2013-04-17 19:02:00,11.0,10.0,-100.00,NNW,343,11.0,14.0,95,0.00,,,-99.99,,2013-04-18 01:02:00,
2013-04-17 19:12:00,10.0,9.0,-100.00,NNW,342,11.0,16.0,95,0.00,,,-99.99,,2013-04-18 01:12:00,
2013-04-17 19:22:00,10.0,9.0,-100.00,NNW,339,10.0,15.0,95,0.00,,,-99.99,,2013-04-18 01:22:00,
2013-04-17 19:32:00,10.0,9.0,-100.00,NNW,335,11.0,14.0,95,0.00,,,-99.99,,2013-04-18 01:32:00,
2013-04-17 19:42:00,10.0,9.0,-100.00,NNW,336,10.0,15.0,95,0.00,,,-99.99,,2013-04-18 01:42:00,
2013-04-17 19:52:00,10.0,9.0,-100.00,NW,319,8.0,11.0,95,0.00,,,-99.99,,2013-04-18 01:52:00,
2013-04-17 20:02:00,9.0,8.0,-100.00,NW,311,7.0,12.0,95,0.00,,,-99.99,,2013-04-18 02:02:00,
2013-04-17 20:12:00,10.0,8.0,-100.00,NW,311,7.0,9.0,95,0.00,,,-99.99,,2013-04-18 02:12:00,
2013-04-17 20:22:00,9.0,8.0,-100.00,West,281,6.0,8.0,95,0.00,,,-99.99,,2013-04-18 02:22:00,
2013-04-17 20:32:00,9.0,8.0,-100.00,West,281,5.0,7.0,95,0.00,,,-99.99,,2013-04-18 02:32:00,
2013-04-17 20:42:00,9.0,8.0,-100.00,West,281,5.0,7.0,95,0.00,,,-99.99,,2013-04-18 02:42:00,
2013-04-17 20:52:00,9.0,8.0,-100.00,West,281,5.0,7.0,95,0.00,,,-99.99,,2013-04-18 02:52:00,
2013-04-17 21:02:00,9.0,8.0,-100.00,WNW,282,5.0,7.0,95,0.00,,,-99.99,,2013-04-18 03:02:00,
2013-04-17 21:12:00,9.0,8.0,-100.00,WNW,285,5.0,7.0,95,0.01,,,-99.99,,2013-04-18 03:12:00,
2013-04-17 21:22:00,9.0,8.0,-100.00,WNW,292,5.0,7.0,95,0.00,,,-99.99,,2013-04-18 03:22:00,
2013-04-17 21:33:00,9.0,8.0,-100.00,WNW,285,4.0,7.0,95,0.01,,,-99.99,,2013-04-18 03:33:00,
2013-04-17 21:43:00,9.0,8.0,-100.00,West,281,4.0,6.0,95,0.00,,,-99.99,,2013-04-18 03:43:00,
2013-04-17 21:53:00,9.0,8.0,-100.00,West,274,4.0,6.0,95,0.00,,,-99.99,,2013-04-18 03:53:00,
2013-04-17 22:03:00,9.0,8.0,-100.00,West,271,4.0,6.0,95,0.00,,,-99.99,,2013-04-18 04:03:00,
2013-04-17 22:13:00,9.0,8.0,-100.00,West,281,3.0,6.0,95,0.00,,,-99.99,,2013-04-18 04:13:00,
2013-04-17 22:23:00,9.0,8.0,-100.00,WNW,285,4.0,6.0,95,0.00,,,-99.99,,2013-04-18 04:23:00,
2013-04-17 22:33:00,9.0,8.0,-100.00,WNW,284,4.0,7.0,95,0.00,,,-99.99,,2013-04-18 04:33:00,
2013-04-17 22:43:00,9.0,8.0,-100.00,West,278,6.0,8.0,95,0.00,,,-99.99,,2013-04-18 04:43:00,
2013-04-17 22:53:00,9.0,8.0,-100.00,West,277,4.0,7.0,94,0.00,,,-99.99,,2013-04-18 04:53:00,
2013-04-17 23:02:00,9.0,8.0,-100.00,West,280,6.0,9.0,94,0.00,,,-99.99,,2013-04-18 05:02:00,
2013-04-17 23:12:00,8.0,7.0,-100.00,West,278,6.0,9.0,94,0.00,,,-99.99,,2013-04-18 05:12:00,
2013-04-17 23:22:00,8.0,7.0,-100.00,West,271,7.0,10.0,94,0.00,,,-99.99,,2013-04-18 05:22:00,
2013-04-17 23:33:00,8.0,7.0,-100.00,West,280,6.0,8.0,94,0.00,,,-99.99,,2013-04-18 05:33:00,
2013-04-17 23:42:00,7.0,6.0,-100.00,WNW,287,7.0,9.0,94,0.00,,,-99.99,,2013-04-18 05:42:00,
2013-04-17 23:52:00,7.0,6.0,-100.00,WNW,282,7.0,9.0,94,0.00,,,-99.99,,2013-04-18 05:52:00,